createdAt,value
2019-05-12T00:00:18.360Z,7.90
2019-05-12T00:02:44.557Z,7.90
2019-05-12T00:05:10.684Z,7.80
2019-05-12T00:07:38.185Z,7.80
2019-05-12T00:10:04.947Z,7.80
2019-05-12T00:12:30.971Z,7.80
2019-05-12T00:14:58.964Z,7.80
2019-05-12T00:17:24.932Z,7.70
2019-05-12T00:19:50.970Z,7.70
2019-05-12T00:22:18.904Z,7.60
2019-05-12T00:24:44.935Z,7.60
2019-05-12T00:27:12.843Z,7.60
2019-05-12T00:29:38.879Z,7.60
2019-05-12T00:32:04.899Z,7.50
2019-05-12T00:34:30.941Z,7.50
2019-05-12T00:36:57.723Z,7.50
2019-05-12T00:39:23.900Z,7.50
2019-05-12T00:41:49.912Z,7.50
2019-05-12T00:44:18.381Z,7.40
2019-05-12T00:46:44.686Z,7.40
2019-05-12T00:49:10.704Z,7.40
2019-05-12T00:51:38.336Z,7.40
2019-05-12T00:54:04.655Z,7.30
2019-05-12T00:56:30.699Z,7.30
2019-05-12T00:58:58.005Z,7.30
2019-05-12T01:01:24.123Z,7.30
2019-05-12T01:03:50.143Z,7.30
2019-05-12T01:06:17.834Z,7.40
2019-05-12T01:08:43.999Z,7.30
2019-05-12T01:11:10.027Z,7.30
2019-05-12T01:13:38.156Z,7.20
2019-05-12T01:16:03.991Z,7.20
2019-05-12T01:18:29.995Z,7.10
2019-05-12T01:20:58.173Z,7.10
2019-05-12T01:23:23.992Z,7.10
2019-05-12T01:25:50.804Z,7.00
2019-05-12T01:28:18.409Z,7.00
2019-05-12T01:30:44.652Z,7.00
2019-05-12T01:33:10.666Z,7.00
2019-05-12T01:35:38.819Z,7.00
2019-05-12T01:38:04.939Z,7.00
2019-05-12T01:40:32.039Z,6.90
2019-05-12T01:42:58.465Z,6.90
2019-05-12T01:45:24.690Z,6.80
2019-05-12T01:47:50.722Z,6.80
2019-05-12T01:50:17.777Z,6.80
2019-05-12T01:52:43.991Z,6.80
2019-05-12T01:55:10.223Z,6.80
2019-05-12T01:57:38.532Z,6.70
2019-05-12T02:00:10.430Z,6.70
2019-05-12T02:02:58.773Z,6.70
2019-05-12T02:05:24.947Z,6.70
2019-05-12T02:07:55.135Z,6.70
2019-05-12T02:10:21.967Z,6.70
2019-05-12T02:12:49.052Z,6.80
2019-05-12T02:15:18.367Z,6.80
2019-05-12T02:17:44.539Z,6.80
2019-05-12T02:20:11.383Z,6.80
2019-05-12T02:22:38.860Z,6.70
2019-05-12T02:25:08.097Z,6.70
2019-05-12T02:27:34.304Z,6.70
2019-05-12T02:30:00.324Z,6.60
2019-05-12T02:32:32.743Z,6.60
2019-05-12T02:34:54.862Z,6.60
2019-05-12T02:37:21.107Z,6.60
2019-05-12T02:39:47.124Z,6.50
2019-05-12T02:42:15.551Z,6.50
2019-05-12T02:44:43.715Z,6.50
2019-05-12T02:47:09.041Z,6.40
2019-05-12T02:49:35.066Z,6.40
2019-05-12T02:52:04.944Z,6.40
2019-05-12T02:54:50.593Z,6.40
2019-05-12T02:57:04.238Z,6.30
2019-05-12T02:59:34.422Z,6.30
2019-05-12T03:01:59.175Z,6.30
2019-05-12T03:04:47.020Z,6.20
2019-05-12T03:07:15.374Z,6.20
2019-05-12T03:09:40.987Z,6.20
2019-05-12T03:12:07.320Z,6.20
2019-05-12T03:14:39.429Z,6.20
2019-05-12T03:17:04.577Z,6.10
2019-05-12T03:19:29.235Z,6.10
2019-05-12T03:21:55.259Z,6.10
2019-05-12T03:24:21.295Z,6.10
2019-05-12T03:26:47.324Z,6.10
2019-05-12T03:29:14.770Z,6.00
2019-05-12T03:31:41.500Z,6.00
2019-05-12T03:34:10.252Z,6.00
2019-05-12T03:36:42.061Z,6.00
2019-05-12T03:39:06.388Z,6.00
2019-05-12T03:41:34.739Z,6.00
2019-05-12T03:44:01.423Z,6.00
2019-05-12T03:46:27.462Z,6.00
2019-05-12T03:48:55.385Z,6.00
2019-05-12T03:51:24.965Z,6.00
2019-05-12T03:53:49.435Z,6.10
2019-05-12T03:56:15.520Z,6.10
2019-05-12T03:58:44.985Z,6.10
2019-05-12T04:01:09.481Z,6.10
2019-05-12T04:03:35.488Z,6.20
2019-05-12T04:06:04.480Z,6.20
2019-05-12T04:08:29.442Z,6.30
2019-05-12T04:10:55.454Z,6.30
2019-05-12T04:13:21.480Z,6.30
2019-05-12T04:15:47.490Z,6.40
2019-05-12T04:18:15.864Z,6.30
2019-05-12T04:20:41.457Z,6.40
2019-05-12T04:23:07.494Z,6.50
2019-05-12T04:25:50.378Z,6.60
2019-05-12T04:28:04.547Z,6.70
2019-05-12T04:30:29.411Z,6.80
2019-05-12T04:32:55.494Z,6.90
2019-05-12T04:35:24.858Z,7.00
2019-05-12T04:37:49.511Z,7.10
2019-05-12T04:40:15.625Z,7.10
2019-05-12T04:42:44.839Z,7.10
2019-05-12T04:45:09.780Z,7.30
2019-05-12T04:47:35.860Z,7.40
2019-05-12T04:50:05.466Z,7.50
2019-05-12T04:52:31.147Z,7.60
2019-05-12T04:54:57.166Z,7.80
2019-05-12T04:57:25.445Z,7.80
2019-05-12T04:59:54.106Z,7.90
2019-05-12T05:02:19.056Z,8.00
2019-05-12T05:04:45.068Z,8.10
2019-05-12T05:07:11.104Z,8.20
2019-05-12T05:09:37.140Z,8.30
2019-05-12T05:12:04.603Z,8.40
2019-05-12T05:14:33.863Z,8.50
2019-05-12T05:16:58.893Z,8.40
2019-05-12T05:19:24.901Z,8.40
2019-05-12T05:21:50.943Z,8.40
2019-05-12T05:24:16.960Z,8.30
2019-05-12T05:26:43.596Z,8.30
2019-05-12T05:29:09.855Z,8.30
2019-05-12T05:31:35.885Z,8.20
2019-05-12T05:34:04.819Z,8.20
2019-05-12T05:36:30.339Z,8.10
2019-05-12T05:39:01.614Z,8.10
2019-05-12T05:41:24.367Z,8.20
2019-05-12T05:43:56.373Z,8.10
2019-05-12T05:46:18.319Z,8.20
2019-05-12T05:48:44.351Z,8.10
2019-05-12T05:51:10.366Z,8.00
2019-05-12T05:53:36.497Z,7.90
2019-05-12T05:56:04.084Z,8.00
2019-05-12T05:58:30.228Z,8.00
2019-05-12T06:01:03.122Z,8.10
2019-05-12T06:03:27.766Z,8.20
2019-05-12T06:05:53.458Z,8.20
2019-05-12T06:08:20.716Z,8.20
2019-05-12T06:10:47.095Z,8.20
2019-05-12T06:13:14.375Z,8.20
2019-05-12T06:15:41.021Z,8.20
2019-05-12T06:18:08.508Z,8.40
2019-05-12T06:20:37.817Z,8.80
2019-05-12T06:23:04.261Z,9.00
2019-05-12T06:25:44.558Z,9.20
2019-05-12T06:28:00.032Z,9.40
2019-05-12T06:30:26.318Z,9.70
2019-05-12T06:32:54.571Z,10.00
2019-05-12T06:35:20.272Z,10.10
2019-05-12T06:37:57.270Z,10.20
2019-05-12T06:40:14.302Z,10.40
2019-05-12T06:42:40.320Z,10.30
2019-05-12T06:45:06.750Z,10.20
2019-05-12T06:47:34.396Z,10.20
2019-05-12T06:50:03.681Z,10.20
2019-05-12T06:52:29.290Z,10.10
2019-05-12T06:54:56.807Z,10.10
2019-05-12T06:57:28.393Z,10.10
2019-05-12T06:59:52.453Z,10.10
2019-05-12T07:02:18.775Z,10.00
2019-05-12T07:04:47.446Z,10.00
2019-05-12T07:07:14.178Z,10.00
2019-05-12T07:09:51.993Z,10.00
2019-05-12T07:12:08.389Z,10.00
2019-05-12T07:14:34.682Z,9.70
2019-05-12T07:17:05.586Z,9.60
2019-05-12T07:19:30.648Z,9.70
2019-05-12T07:21:59.857Z,9.60
2019-05-12T07:24:24.619Z,9.60
2019-05-12T07:26:54.792Z,9.60
2019-05-12T07:29:18.863Z,9.70
2019-05-12T07:31:44.888Z,9.80
2019-05-12T07:34:13.500Z,9.90
2019-05-12T07:36:39.135Z,10.00
2019-05-12T07:39:08.352Z,10.20
2019-05-12T07:41:56.474Z,10.30
2019-05-12T07:44:25.263Z,10.40
2019-05-12T07:46:53.597Z,10.50
2019-05-12T07:49:22.021Z,10.40
2019-05-12T07:51:49.986Z,10.70
2019-05-12T07:54:15.357Z,10.70
2019-05-12T07:56:44.083Z,10.90
2019-05-12T07:59:09.307Z,11.20
2019-05-12T08:01:44.773Z,11.20
2019-05-12T08:04:04.545Z,11.30
2019-05-12T08:06:32.579Z,11.50
2019-05-12T08:09:24.039Z,11.20
2019-05-12T08:11:46.620Z,11.10
2019-05-12T08:14:24.796Z,11.10
2019-05-12T08:17:10.093Z,11.50
2019-05-12T08:19:29.126Z,11.60
2019-05-12T08:21:55.251Z,11.90
2019-05-12T08:24:23.519Z,12.10
2019-05-12T08:26:58.725Z,12.10
2019-05-12T08:29:21.433Z,12.00
2019-05-12T08:31:45.151Z,11.70
2019-05-12T08:34:13.521Z,11.90
2019-05-12T08:36:39.136Z,12.20
2019-05-12T08:39:11.815Z,12.80
2019-05-12T08:41:34.440Z,13.10
2019-05-12T08:44:04.434Z,13.20
2019-05-12T08:46:52.033Z,13.00
2019-05-12T08:49:16.262Z,12.80
2019-05-12T08:51:44.253Z,12.50
2019-05-12T08:54:10.597Z,12.50
2019-05-12T08:56:36.697Z,12.50
2019-05-12T08:59:04.374Z,12.60
2019-05-12T09:01:30.967Z,12.70
2019-05-12T09:04:00.254Z,12.60
2019-05-12T09:06:25.835Z,12.80
2019-05-12T09:08:54.068Z,12.30
2019-05-12T09:11:20.091Z,12.40
2019-05-12T09:13:46.129Z,12.70
2019-05-12T09:16:13.782Z,12.70
2019-05-12T09:18:40.060Z,13.00
2019-05-12T09:21:06.088Z,13.20
2019-05-12T09:23:40.803Z,13.30
2019-05-12T09:26:00.147Z,13.60
2019-05-12T09:28:26.191Z,13.60
2019-05-12T09:30:53.887Z,13.40
2019-05-12T09:33:21.328Z,13.10
2019-05-12T09:35:48.059Z,13.40
2019-05-12T09:38:21.426Z,13.50
2019-05-12T09:40:44.227Z,13.30
2019-05-12T09:43:10.807Z,13.40
2019-05-12T09:45:40.716Z,13.60
2019-05-12T09:48:09.075Z,13.50
2019-05-12T09:50:34.260Z,13.50
2019-05-12T09:53:09.284Z,13.50
2019-05-12T09:55:29.008Z,13.50
2019-05-12T09:57:55.051Z,13.80
2019-05-12T10:00:21.367Z,14.00
2019-05-12T10:02:51.049Z,14.00
2019-05-12T10:05:15.544Z,14.20
2019-05-12T10:07:41.569Z,14.40
2019-05-12T10:10:08.161Z,14.60
2019-05-12T10:12:36.609Z,14.90
2019-05-12T10:15:08.355Z,15.40
2019-05-12T10:17:36.351Z,15.50
2019-05-12T10:20:05.114Z,15.00
2019-05-12T10:22:37.746Z,14.80
2019-05-12T10:25:05.184Z,15.00
2019-05-12T10:27:32.478Z,14.90
2019-05-12T10:30:05.527Z,14.80
2019-05-12T10:32:27.363Z,14.60
2019-05-12T10:34:53.791Z,14.60
2019-05-12T10:37:25.355Z,14.50
2019-05-12T10:39:47.879Z,14.20
2019-05-12T10:42:13.919Z,14.10
2019-05-12T10:44:40.898Z,14.50
2019-05-12T10:47:07.167Z,14.90
2019-05-12T10:49:33.801Z,15.40
2019-05-12T10:51:59.984Z,15.60
2019-05-12T10:54:26.000Z,15.50
2019-05-12T10:56:54.569Z,15.10
2019-05-12T10:59:30.179Z,15.20
2019-05-12T11:01:49.130Z,15.00
2019-05-12T11:04:15.307Z,15.10
2019-05-12T11:06:46.856Z,15.00
2019-05-12T11:09:15.183Z,15.30
2019-05-12T11:11:43.716Z,15.40
2019-05-12T11:14:09.129Z,15.50
2019-05-12T11:16:35.176Z,15.90
2019-05-12T11:19:08.736Z,16.10
2019-05-12T11:21:29.126Z,16.40
2019-05-12T11:23:55.146Z,16.40
2019-05-12T11:26:23.434Z,16.10
2019-05-12T11:28:49.123Z,15.80
2019-05-12T11:31:35.032Z,15.30
2019-05-12T11:34:01.043Z,15.10
2019-05-12T11:36:27.095Z,14.80
2019-05-12T11:38:53.405Z,14.80
2019-05-12T11:41:20.330Z,15.10
2019-05-12T11:43:46.606Z,15.30
2019-05-12T11:46:12.626Z,15.40
2019-05-12T11:48:40.249Z,15.00
2019-05-12T11:51:06.801Z,14.50
2019-05-12T11:53:35.619Z,14.40
2019-05-12T11:56:02.370Z,14.40
2019-05-12T11:58:29.587Z,14.60
2019-05-12T12:00:58.479Z,14.90
2019-05-12T12:03:25.452Z,15.40
2019-05-12T12:05:53.582Z,15.80
2019-05-12T12:08:19.407Z,15.80
2019-05-12T12:10:48.659Z,15.70
2019-05-12T12:13:14.183Z,15.50
2019-05-12T12:15:40.479Z,15.30
2019-05-12T12:18:13.000Z,15.50
2019-05-12T12:20:34.601Z,15.70
2019-05-12T12:23:06.541Z,15.90
2019-05-12T12:25:30.672Z,15.80
2019-05-12T12:27:56.720Z,15.70
2019-05-12T12:30:23.656Z,15.40
2019-05-12T12:32:50.237Z,15.40
2019-05-12T12:35:18.157Z,15.50
2019-05-12T12:37:44.961Z,15.50
2019-05-12T12:40:11.719Z,15.70
2019-05-12T12:42:43.906Z,15.60
2019-05-12T12:45:17.293Z,15.40
2019-05-12T12:47:47.079Z,15.20
2019-05-12T12:50:13.258Z,15.20
2019-05-12T12:52:59.049Z,15.10
2019-05-12T12:55:25.239Z,15.30
2019-05-12T12:57:51.332Z,15.90
2019-05-12T13:00:28.813Z,15.90
2019-05-12T13:02:49.313Z,15.70
2019-05-12T13:05:13.641Z,15.60
2019-05-12T13:07:39.909Z,15.20
2019-05-12T13:10:09.552Z,15.30
2019-05-12T13:12:35.853Z,15.40
2019-05-12T13:15:04.643Z,15.50
2019-05-12T13:17:39.969Z,15.80
2019-05-12T13:19:58.989Z,16.00
2019-05-12T13:22:25.096Z,16.20
2019-05-12T13:24:53.057Z,16.20
2019-05-12T13:27:23.947Z,16.10
2019-05-12T13:29:46.982Z,16.40
2019-05-12T13:32:13.790Z,16.40
2019-05-12T13:34:40.049Z,15.90
2019-05-12T13:37:09.318Z,15.50
2019-05-12T13:39:34.200Z,15.40
2019-05-12T13:42:00.438Z,15.50
2019-05-12T13:44:30.447Z,15.70
2019-05-12T13:46:58.676Z,16.00
2019-05-12T13:49:24.376Z,16.10
2019-05-12T13:51:50.458Z,16.10
2019-05-12T13:54:20.233Z,15.50
2019-05-12T13:57:11.941Z,15.60
2019-05-12T13:59:34.065Z,15.60
2019-05-12T14:02:00.263Z,15.60
2019-05-12T14:04:27.857Z,15.60
2019-05-12T14:06:54.351Z,15.90
2019-05-12T14:09:20.528Z,16.30
2019-05-12T14:11:46.571Z,16.40
2019-05-12T14:14:15.371Z,16.40
2019-05-12T14:16:44.492Z,16.50
2019-05-12T14:19:08.463Z,16.40
2019-05-12T14:21:40.958Z,16.40
2019-05-12T14:24:02.678Z,16.40
2019-05-12T14:26:28.692Z,16.40
2019-05-12T14:28:54.723Z,16.60
2019-05-12T14:31:29.209Z,16.70
2019-05-12T14:33:48.679Z,16.90
2019-05-12T14:36:21.512Z,16.90
2019-05-12T15:18:03.542Z,17.90
2019-05-12T15:22:55.373Z,24.00
2019-05-12T15:25:21.663Z,24.10
2019-05-12T15:27:48.494Z,24.40
2019-05-12T15:30:22.806Z,26.30
2019-05-12T15:32:42.643Z,26.60
2019-05-12T15:35:09.170Z,27.80
2019-05-12T15:37:38.965Z,28.60
2019-05-12T15:40:24.940Z,29.20
2019-05-12T15:42:55.037Z,28.00
2019-05-12T15:45:18.982Z,28.80
2019-05-12T15:47:45.026Z,30.40
2019-05-12T15:50:11.468Z,30.80
2019-05-12T15:52:42.246Z,32.20
2019-05-12T15:55:06.734Z,33.50
2019-05-12T15:57:33.520Z,33.40
2019-05-12T15:59:59.688Z,33.70
2019-05-12T16:02:25.704Z,33.40
2019-05-12T16:04:51.751Z,33.20
2019-05-12T16:08:14.307Z,32.70
2019-05-12T16:10:40.543Z,31.40
2019-05-12T16:27:50.755Z,24.70
2019-05-12T16:30:20.376Z,24.30
2019-05-12T16:32:47.796Z,24.20
2019-05-12T16:35:14.534Z,22.80
2019-05-12T16:37:41.232Z,21.60
2019-05-12T16:40:07.870Z,21.90
2019-05-12T16:42:33.969Z,23.30
2019-05-12T16:45:08.120Z,24.40
2019-05-12T16:47:32.873Z,24.90
2019-05-12T16:49:58.343Z,25.60
2019-05-12T16:52:26.408Z,26.30
2019-05-12T16:54:54.071Z,26.10
2019-05-12T16:57:20.307Z,25.70
2019-05-12T16:59:46.350Z,25.90
2019-05-12T17:02:13.732Z,26.10
2019-05-12T17:04:40.057Z,24.90
2019-05-12T17:07:09.824Z,23.80
2019-05-12T17:09:34.025Z,22.70
2019-05-12T17:12:00.157Z,22.00
2019-05-12T17:14:28.647Z,21.40
2019-05-12T17:16:54.416Z,20.80
2019-05-12T17:19:20.543Z,20.40
2019-05-12T17:21:49.354Z,20.00
2019-05-12T17:24:17.485Z,19.40
2019-05-12T17:26:43.984Z,18.60
2019-05-12T17:29:10.139Z,17.80
2019-05-12T17:31:36.178Z,17.30
2019-05-12T17:34:08.243Z,17.00
2019-05-12T17:36:30.173Z,16.60
2019-05-12T17:38:57.804Z,16.20
2019-05-12T17:41:23.923Z,16.00
2019-05-12T17:43:59.533Z,15.60
2019-05-12T17:46:18.394Z,15.40
2019-05-12T17:48:44.937Z,15.20
2019-05-12T17:51:13.346Z,15.10
2019-05-12T17:53:39.132Z,14.90
2019-05-12T17:56:05.163Z,14.70
2019-05-12T17:58:36.681Z,14.60
2019-05-12T18:00:59.116Z,14.50
2019-05-12T18:03:25.825Z,14.40
2019-05-12T18:05:53.421Z,14.30
2019-05-12T18:08:24.005Z,14.30
2019-05-12T18:10:48.124Z,14.10
2019-05-12T18:13:22.849Z,13.90
2019-05-12T18:15:44.144Z,13.80
2019-05-12T18:18:10.255Z,13.70
2019-05-12T18:20:40.544Z,13.60
2019-05-12T18:23:04.475Z,13.50
2019-05-12T18:25:32.263Z,13.40
2019-05-12T18:27:58.562Z,13.40
2019-05-12T18:30:24.648Z,13.40
2019-05-12T18:32:55.032Z,13.30
2019-05-12T18:35:20.239Z,13.20
2019-05-12T18:37:46.268Z,13.20
2019-05-12T18:40:14.751Z,13.00
2019-05-12T18:42:40.438Z,12.90
2019-05-12T18:45:12.737Z,12.90
2019-05-12T18:47:36.564Z,12.80
2019-05-12T18:50:07.817Z,12.80
2019-05-12T18:52:36.455Z,12.70
2019-05-12T18:55:03.006Z,12.60
2019-05-12T18:57:29.057Z,12.50
2019-05-12T19:00:01.390Z,12.40
2019-05-12T19:02:28.171Z,12.30
2019-05-12T19:04:50.999Z,12.20
2019-05-12T19:07:17.061Z,12.10
2019-05-12T19:09:47.043Z,12.10
2019-05-12T19:12:17.889Z,12.00
2019-05-12T19:14:43.398Z,11.90
2019-05-12T19:17:08.921Z,11.80
2019-05-12T19:19:35.017Z,11.70
2019-05-12T19:22:06.763Z,11.70
2019-05-12T19:24:29.207Z,11.60
2019-05-12T19:27:04.199Z,11.50
2019-05-12T19:29:35.209Z,11.50
2019-05-12T19:31:58.238Z,11.40
2019-05-12T19:34:26.304Z,11.40
2019-05-12T19:39:36.905Z,11.20
2019-05-12T19:42:03.724Z,11.20
2019-05-12T19:44:34.108Z,11.20
2019-05-12T19:46:59.729Z,11.10
2019-05-12T19:49:45.885Z,11.10
2019-05-12T19:51:58.462Z,11.00
2019-05-12T19:54:29.511Z,11.00
2019-05-12T19:56:53.768Z,10.90
2019-05-12T19:59:19.990Z,10.90
2019-05-12T20:01:46.167Z,10.90
2019-05-12T20:04:15.467Z,10.80
2019-05-12T20:06:46.481Z,10.70
2019-05-12T20:09:10.981Z,10.60
2019-05-12T20:11:37.232Z,10.50
2019-05-12T20:14:10.064Z,10.40
2019-05-12T20:16:54.418Z,10.40
2019-05-12T20:19:25.322Z,10.40
2019-05-12T20:21:50.443Z,10.40
2019-05-12T20:24:24.879Z,10.40
2019-05-12T20:26:50.895Z,10.40
2019-05-12T20:29:24.547Z,10.30
2019-05-12T20:31:48.749Z,10.20
2019-05-12T20:37:13.071Z,10.20
2019-05-12T20:39:34.057Z,10.20
2019-05-12T20:42:06.457Z,10.20
2019-05-12T20:44:34.429Z,10.00
2019-05-12T20:47:01.554Z,10.10
2019-05-12T20:49:29.938Z,10.00
2019-05-12T20:55:03.853Z,10.00
2019-05-12T20:57:34.510Z,9.90
2019-05-12T21:00:04.738Z,9.90
2019-05-12T21:02:29.499Z,9.80
2019-05-12T21:05:00.898Z,9.80
2019-05-12T21:07:39.403Z,9.70
2019-05-12T21:09:55.522Z,9.70
2019-05-12T21:12:33.457Z,9.70
2019-05-12T21:15:12.628Z,9.60
2019-05-12T21:17:39.642Z,9.50
2019-05-12T21:19:59.110Z,9.50
2019-05-12T21:22:34.183Z,9.40
2019-05-12T21:25:10.573Z,9.40
2019-05-12T21:27:35.465Z,9.30
2019-05-12T21:30:10.015Z,9.30
2019-05-12T21:32:30.070Z,9.30
2019-05-12T21:34:57.916Z,9.20
2019-05-12T21:37:25.448Z,9.20
2019-05-12T21:39:51.651Z,9.20
2019-05-12T21:42:37.575Z,9.10
2019-05-12T21:45:04.718Z,8.90
2019-05-12T21:47:36.332Z,9.00
2019-05-12T21:49:59.060Z,9.00
2019-05-12T21:52:25.097Z,9.00
2019-05-12T21:54:51.138Z,9.00
2019-05-12T21:57:19.167Z,9.10
2019-05-12T21:59:45.130Z,8.90
2019-05-12T22:02:11.282Z,8.90
2019-05-12T22:04:41.234Z,8.80
2019-05-12T22:07:07.030Z,8.80
2019-05-12T22:09:41.812Z,8.70
2019-05-12T22:12:03.274Z,8.70
2019-05-12T22:14:30.502Z,8.70
2019-05-12T22:16:58.917Z,8.70
2019-05-12T22:19:30.770Z,8.60
2019-05-12T22:21:53.678Z,8.60
2019-05-12T22:24:27.457Z,8.50
2019-05-12T22:26:47.831Z,8.50
2019-05-12T22:29:13.899Z,8.50
2019-05-12T22:31:44.866Z,8.50
2019-05-12T22:34:37.059Z,8.50
2019-05-12T22:36:59.238Z,8.40
2019-05-12T22:39:24.674Z,8.40
2019-05-12T22:41:50.680Z,8.30
2019-05-12T22:44:20.779Z,8.30
2019-05-12T22:46:45.247Z,8.30
2019-05-12T22:49:16.830Z,8.30
2019-05-12T22:51:39.243Z,8.30
2019-05-12T22:54:08.725Z,8.30
2019-05-12T22:56:34.230Z,8.30
2019-05-12T22:59:01.559Z,8.30
2019-05-12T23:01:32.943Z,8.30
2019-05-12T23:03:56.080Z,8.30
2019-05-12T23:06:25.135Z,8.30
2019-05-12T23:08:50.107Z,8.20
2019-05-12T23:11:16.136Z,8.20
2019-05-12T23:13:42.853Z,8.20
2019-05-12T23:16:09.095Z,8.20
2019-05-12T23:18:35.123Z,8.20
2019-05-12T23:21:06.411Z,8.20
2019-05-12T23:23:29.272Z,8.10
2019-05-12T23:26:00.452Z,8.10
2019-05-12T23:28:23.237Z,8.10
2019-05-12T23:30:50.199Z,8.00
2019-05-12T23:33:16.303Z,8.00
2019-05-12T23:35:44.185Z,8.00
2019-05-12T23:38:15.552Z,7.90
2019-05-12T23:40:38.214Z,7.90
2019-05-12T23:43:04.339Z,7.90
2019-05-12T23:45:30.360Z,7.80
2019-05-12T23:47:56.374Z,7.70
2019-05-12T23:50:43.793Z,7.70
2019-05-12T23:53:10.039Z,7.80
2019-05-12T23:55:36.106Z,7.70
2019-05-12T23:58:04.157Z,7.70
